Time;durP1;ratioP1;P1;durP2;ratioP2;P2;SDS_P1;SDS_P2;PMS_P1;PMS_P2;Temp;Humidity;BMP_temperature;BMP_pressure;BME280_temperature;BME280_humidity;BME280_pressure;Samples;Min_cycle;Max_cycle;Signal;HPM_P1;HPM_P2
2023/02/28 00:00:09;;;;;;;;;;;0.10;99.90;;;;;;4971782;28;19932;-68
2023/02/28 00:02:36;;;;;;;;;;;0.00;99.90;;;;;;4970287;28;20051;-68
2023/02/28 00:05:03;;;;;;;;;;;0.00;99.90;;;;;;4968019;28;20013;-67
2023/02/28 00:07:31;;;;;;;;;;;0.00;99.90;;;;;;4969830;28;20359;-68
2023/02/28 00:09:58;;;;;;;;;;;-0.10;99.90;;;;;;4969314;28;21012;-68
2023/02/28 00:12:25;;;;;;;;;;;-0.10;99.90;;;;;;4958816;28;19966;-67
2023/02/28 00:14:52;;;;;;;;;;;0.00;99.90;;;;;;4970746;28;20437;-67
2023/02/28 00:17:20;;;;;;;;;;;-0.10;99.90;;;;;;4971088;28;19980;-67
2023/02/28 00:19:47;;;;;;;;;;;-0.10;99.90;;;;;;4970148;28;19926;-68
2023/02/28 00:22:14;;;;;;;;;;;-0.10;99.90;;;;;;4971302;28;19978;-67
2023/02/28 00:24:42;;;;;;;;;;;-0.10;99.90;;;;;;4970331;28;20011;-67
2023/02/28 00:27:09;;;;;;;;;;;-0.10;99.90;;;;;;4971358;28;19992;-67
2023/02/28 00:29:36;;;;;;;;;;;-0.20;99.90;;;;;;4971432;28;19969;-68
2023/02/28 00:32:03;;;;;;;;;;;-0.20;99.90;;;;;;4967838;28;20021;-67
2023/02/28 00:34:29;;;;;;;;;;;-0.10;99.90;;;;;;4952237;28;19932;-67
2023/02/28 00:36:56;;;;;;;;;;;-0.10;99.90;;;;;;4971375;28;20029;-67
2023/02/28 00:39:23;;;;;;;;;;;-0.10;99.90;;;;;;4970764;28;19976;-67
2023/02/28 00:41:51;;;;;;;;;;;-0.10;99.90;;;;;;4971125;28;20021;-68
2023/02/28 00:44:17;;;;;;;;;;;-0.10;99.90;;;;;;4971409;28;20013;-67
2023/02/28 00:46:44;;;;;;;;;;;-0.20;99.90;;;;;;4970816;28;20008;-67
2023/02/28 00:49:11;;;;;;;;;;;-0.20;99.90;;;;;;4970641;28;19926;-68
2023/02/28 00:51:37;;;;;;;;;;;-0.20;99.90;;;;;;4971138;28;20012;-67
2023/02/28 00:54:04;;;;;;;;;;;-0.20;99.90;;;;;;4969297;28;19926;-67
2023/02/28 00:56:31;;;;;;;;;;;-0.30;99.90;;;;;;4969650;28;19932;-67
2023/02/28 00:58:59;;;;;;;;;;;-0.30;99.90;;;;;;4970809;28;20021;-68
2023/02/28 01:01:25;;;;;;;;;;;-0.30;99.90;;;;;;4970729;28;19926;-67
2023/02/28 01:03:52;;;;;;;;;;;-0.30;99.90;;;;;;4970371;28;19937;-67
2023/02/28 01:06:19;;;;;;;;;;;-0.30;99.90;;;;;;4970593;28;19927;-67
2023/02/28 01:08:45;;;;;;;;;;;-0.30;99.90;;;;;;4970378;28;20033;-67
2023/02/28 01:11:13;;;;;;;;;;;-0.30;99.90;;;;;;4972918;28;19969;-67
2023/02/28 01:13:40;;;;;;;;;;;-0.30;99.90;;;;;;4973947;28;19933;-67
2023/02/28 01:16:08;;;;;;;;;;;-0.40;99.90;;;;;;4973093;28;20401;-68
2023/02/28 01:18:35;;;;;;;;;;;-0.30;99.90;;;;;;4972797;28;19932;-69
2023/02/28 01:21:04;;;;;;;;;;;-0.30;99.90;;;;;;4973510;28;19932;-67
2023/02/28 01:23:30;;;;;;;;;;;-0.20;99.90;;;;;;4969571;28;19926;-68
2023/02/28 01:25:57;;;;;;;;;;;-0.20;99.90;;;;;;4972097;28;19965;-67
2023/02/28 01:28:23;;;;;;;;;;;-0.10;99.90;;;;;;4972631;28;19972;-68
2023/02/28 01:30:50;;;;;;;;;;;-0.10;99.90;;;;;;4973538;28;20013;-68
2023/02/28 01:33:18;;;;;;;;;;;-0.20;99.90;;;;;;4960032;28;20281;-68
2023/02/28 01:35:45;;;;;;;;;;;-0.20;99.90;;;;;;4954704;29;19933;-68
2023/02/28 01:38:11;;;;;;;;;;;-0.20;99.90;;;;;;4960934;28;20004;-68
2023/02/28 01:40:38;;;;;;;;;;;-0.10;99.90;;;;;;4973594;28;19933;-67
2023/02/28 01:43:05;;;;;;;;;;;-0.10;99.90;;;;;;4973502;28;20017;-67
2023/02/28 01:45:34;;;;;;;;;;;-0.10;99.90;;;;;;4973601;28;19933;-67
2023/02/28 01:48:03;;;;;;;;;;;-0.10;99.90;;;;;;4973651;28;19926;-68
2023/02/28 01:50:34;;;;;;;;;;;-0.10;99.90;;;;;;4970987;28;19933;-67
2023/02/28 01:53:02;;;;;;;;;;;-0.20;99.90;;;;;;4961868;28;20019;-67
2023/02/28 01:55:30;;;;;;;;;;;-0.20;99.90;;;;;;4973119;28;20013;-67
2023/02/28 01:57:58;;;;;;;;;;;-0.20;99.90;;;;;;4971815;28;19935;-68
2023/02/28 02:00:26;;;;;;;;;;;-0.20;99.90;;;;;;4972109;28;19942;-68
2023/02/28 02:02:54;;;;;;;;;;;-0.20;99.90;;;;;;4971549;28;19972;-68
2023/02/28 02:05:22;;;;;;;;;;;-0.20;99.90;;;;;;4972110;28;20301;-67
2023/02/28 02:07:51;;;;;;;;;;;-0.30;99.90;;;;;;4971627;28;19926;-67
2023/02/28 02:10:19;;;;;;;;;;;-0.30;99.90;;;;;;4972431;28;19926;-68
2023/02/28 02:12:54;;;;;;;;;;;-0.40;99.90;;;;;;4972369;28;20399;-68
2023/02/28 02:15:24;;;;;;;;;;;-0.40;99.90;;;;;;4972037;28;19926;-68
2023/02/28 02:17:53;;;;;;;;;;;-0.40;99.90;;;;;;4970676;28;19926;-68
2023/02/28 02:20:43;;;;;;;;;;;-0.40;99.90;;;;;;4973336;28;20017;-68
2023/02/28 02:23:26;;;;;;;;;;;-0.50;99.90;;;;;;4962290;28;19927;-68
2023/02/28 02:25:55;;;;;;;;;;;-0.50;99.90;;;;;;4954471;29;20275;-67
2023/02/28 02:28:46;;;;;;;;;;;-0.60;99.90;;;;;;4969611;28;20018;-68
2023/02/28 02:31:24;;;;;;;;;;;-0.60;99.90;;;;;;4974175;28;20036;-68
2023/02/28 02:34:14;;;;;;;;;;;-0.70;99.90;;;;;;4971665;28;20021;-68
2023/02/28 02:36:45;;;;;;;;;;;-0.70;99.90;;;;;;4972460;28;20399;-67
2023/02/28 02:39:14;;;;;;;;;;;-0.70;99.90;;;;;;4969761;28;19934;-68
2023/02/28 02:41:46;;;;;;;;;;;-0.60;99.90;;;;;;4971508;28;20417;-67
2023/02/28 02:44:16;;;;;;;;;;;-0.60;99.90;;;;;;4971619;28;19933;-67
2023/02/28 02:46:44;;;;;;;;;;;-0.60;99.90;;;;;;4972683;28;19933;-68
2023/02/28 02:49:16;;;;;;;;;;;-0.60;99.90;;;;;;4963911;28;20305;-68
2023/02/28 02:51:44;;;;;;;;;;;-0.60;99.90;;;;;;4971663;28;19926;-68
2023/02/28 02:54:15;;;;;;;;;;;-0.70;99.90;;;;;;4968707;28;19930;-68
2023/02/28 02:56:43;;;;;;;;;;;-0.70;99.90;;;;;;4971441;28;19935;-68
2023/02/28 02:59:11;;;;;;;;;;;-0.80;99.90;;;;;;4968513;28;20020;-68
2023/02/28 03:01:39;;;;;;;;;;;-0.80;99.90;;;;;;4968648;28;19930;-68
2023/02/28 03:04:08;;;;;;;;;;;-0.80;99.90;;;;;;4967372;28;20008;-68
2023/02/28 03:06:36;;;;;;;;;;;-0.80;99.90;;;;;;4972105;28;19969;-67
2023/02/28 03:09:02;;;;;;;;;;;-0.80;99.90;;;;;;4970667;28;19927;-68
2023/02/28 03:11:30;;;;;;;;;;;-0.90;99.90;;;;;;4972600;28;19969;-67
2023/02/28 03:14:09;;;;;;;;;;;-0.90;99.90;;;;;;4970609;28;19932;-67
2023/02/28 03:16:41;;;;;;;;;;;-0.90;99.90;;;;;;4972812;28;19926;-67
2023/02/28 03:19:17;;;;;;;;;;;-1.00;99.90;;;;;;4972165;28;20295;-68
2023/02/28 03:21:48;;;;;;;;;;;-1.00;99.90;;;;;;4971579;28;20519;-67
2023/02/28 03:24:17;;;;;;;;;;;-1.00;99.90;;;;;;4952774;29;20374;-67
2023/02/28 03:26:46;;;;;;;;;;;-1.00;99.90;;;;;;4952614;29;19927;-68
2023/02/28 03:29:17;;;;;;;;;;;-1.10;99.90;;;;;;4958205;28;19926;-67
2023/02/28 03:31:45;;;;;;;;;;;-1.00;99.90;;;;;;4970121;28;19926;-68
2023/02/28 03:34:14;;;;;;;;;;;-1.00;99.90;;;;;;4955362;28;19930;-68
2023/02/28 03:36:44;;;;;;;;;;;-1.00;99.90;;;;;;4971548;28;19932;-67
2023/02/28 03:39:14;;;;;;;;;;;-1.10;99.90;;;;;;4970960;28;19931;-68
2023/02/28 03:41:44;;;;;;;;;;;-1.10;99.90;;;;;;4971863;28;19927;-67
2023/02/28 03:44:15;;;;;;;;;;;-1.20;99.90;;;;;;4971983;28;20356;-67
2023/02/28 03:46:44;;;;;;;;;;;-1.20;99.90;;;;;;4972213;28;19984;-67
2023/02/28 03:49:15;;;;;;;;;;;-1.20;99.90;;;;;;4971583;28;19949;-67
2023/02/28 03:51:42;;;;;;;;;;;-1.20;99.90;;;;;;4971177;28;20319;-67
2023/02/28 03:54:11;;;;;;;;;;;-1.20;99.90;;;;;;4970784;28;19926;-68
2023/02/28 03:56:42;;;;;;;;;;;-1.30;99.90;;;;;;4972130;28;19970;-67
2023/02/28 03:59:13;;;;;;;;;;;-1.30;99.90;;;;;;4959424;28;20028;-68
2023/02/28 04:01:42;;;;;;;;;;;-1.30;99.90;;;;;;4963958;28;19926;-67
2023/02/28 04:04:09;;;;;;;;;;;-1.20;99.90;;;;;;4971127;28;19930;-68
2023/02/28 04:06:36;;;;;;;;;;;-1.10;99.90;;;;;;4971192;28;20020;-67
2023/02/28 04:09:03;;;;;;;;;;;-1.20;99.90;;;;;;4969976;28;19926;-67
2023/02/28 04:11:33;;;;;;;;;;;-1.20;99.90;;;;;;4959558;28;19926;-68
2023/02/28 04:14:01;;;;;;;;;;;-1.20;99.90;;;;;;4964858;28;20013;-67
2023/02/28 04:16:28;;;;;;;;;;;-1.20;99.90;;;;;;4971090;28;20000;-67
2023/02/28 04:19:03;;;;;;;;;;;-1.20;99.90;;;;;;4970704;28;20017;-67
2023/02/28 04:21:30;;;;;;;;;;;-1.20;99.90;;;;;;4957064;28;20294;-68
2023/02/28 04:24:00;;;;;;;;;;;-1.30;99.90;;;;;;4969641;28;19927;-68
2023/02/28 04:26:29;;;;;;;;;;;-1.30;99.90;;;;;;4971667;28;20029;-68
2023/02/28 04:28:56;;;;;;;;;;;-1.20;99.90;;;;;;4967946;28;20005;-68
2023/02/28 04:31:24;;;;;;;;;;;-1.20;99.90;;;;;;4952037;28;19977;-67
2023/02/28 04:33:51;;;;;;;;;;;-1.30;99.90;;;;;;4960041;28;19977;-67
2023/02/28 04:36:17;;;;;;;;;;;-1.30;99.90;;;;;;4952091;29;19960;-67
2023/02/28 04:38:45;;;;;;;;;;;-1.20;99.90;;;;;;4952554;28;20293;-67
2023/02/28 04:41:11;;;;;;;;;;;-1.10;99.90;;;;;;4962845;28;20387;-67
2023/02/28 04:43:38;;;;;;;;;;;-1.00;99.90;;;;;;4971068;28;19926;-68
2023/02/28 04:46:06;;;;;;;;;;;-0.90;99.90;;;;;;4970720;28;19932;-68
2023/02/28 04:48:35;;;;;;;;;;;-0.80;99.90;;;;;;4970772;28;19926;-67
2023/02/28 04:51:02;;;;;;;;;;;-0.70;99.90;;;;;;4970559;28;20381;-66
2023/02/28 04:53:29;;;;;;;;;;;-0.70;99.90;;;;;;4970068;28;19930;-66
2023/02/28 04:55:56;;;;;;;;;;;-0.60;99.90;;;;;;4970341;28;19926;-67
2023/02/28 04:58:23;;;;;;;;;;;-0.50;99.90;;;;;;4971284;28;20295;-67
2023/02/28 05:00:50;;;;;;;;;;;-0.40;99.90;;;;;;4965796;28;19927;-67
2023/02/28 05:03:17;;;;;;;;;;;-0.40;99.90;;;;;;4951764;28;19933;-66
2023/02/28 05:05:45;;;;;;;;;;;-0.40;99.90;;;;;;4954079;28;19952;-67
2023/02/28 05:08:11;;;;;;;;;;;-0.30;99.90;;;;;;4970284;28;20018;-66
2023/02/28 05:10:38;;;;;;;;;;;-0.30;99.90;;;;;;4970636;28;20001;-66
2023/02/28 05:13:05;;;;;;;;;;;-0.20;99.90;;;;;;4970913;28;20009;-67
2023/02/28 05:15:31;;;;;;;;;;;-0.20;99.90;;;;;;4970979;28;20016;-68
2023/02/28 05:17:58;;;;;;;;;;;-0.10;99.90;;;;;;4970112;28;19973;-67
2023/02/28 05:20:25;;;;;;;;;;;-0.10;99.90;;;;;;4968234;28;19926;-67
2023/02/28 05:22:53;;;;;;;;;;;0.00;99.90;;;;;;4969140;28;19937;-67
2023/02/28 05:25:21;;;;;;;;;;;0.00;99.90;;;;;;4969946;28;20500;-68
2023/02/28 05:27:48;;;;;;;;;;;0.00;99.90;;;;;;4968502;28;19930;-68
2023/02/28 05:30:15;;;;;;;;;;;0.10;99.90;;;;;;4969047;28;19936;-68
2023/02/28 05:32:42;;;;;;;;;;;0.10;99.90;;;;;;4969160;28;19981;-68
2023/02/28 05:35:09;;;;;;;;;;;0.10;99.90;;;;;;4970200;28;19930;-68
2023/02/28 05:37:36;;;;;;;;;;;0.10;99.90;;;;;;4969044;28;20014;-67
2023/02/28 05:40:06;;;;;;;;;;;0.10;99.90;;;;;;4970336;28;19926;-67
2023/02/28 05:42:33;;;;;;;;;;;0.20;99.90;;;;;;4970178;28;20297;-66
2023/02/28 05:45:00;;;;;;;;;;;0.20;99.90;;;;;;4969550;28;19930;-68
2023/02/28 05:47:26;;;;;;;;;;;0.20;99.90;;;;;;4967459;28;19932;-67
2023/02/28 05:49:53;;;;;;;;;;;0.20;99.90;;;;;;4968694;28;20029;-67
2023/02/28 05:52:20;;;;;;;;;;;0.20;99.90;;;;;;4979668;28;19992;-68
2023/02/28 05:54:47;;;;;;;;;;;0.20;99.90;;;;;;4967316;28;19926;-67
2023/02/28 05:57:15;;;;;;;;;;;0.20;99.90;;;;;;4969516;28;19926;-67
2023/02/28 05:59:41;;;;;;;;;;;0.20;99.90;;;;;;4967384;28;20013;-68
2023/02/28 06:02:11;;;;;;;;;;;0.20;99.90;;;;;;4968229;28;19933;-67
2023/02/28 06:04:38;;;;;;;;;;;0.30;99.90;;;;;;4970959;28;20543;-67
2023/02/28 06:07:04;;;;;;;;;;;0.30;99.90;;;;;;4971762;28;20016;-66
2023/02/28 06:09:31;;;;;;;;;;;0.30;99.90;;;;;;4970223;28;19926;-67
2023/02/28 06:11:58;;;;;;;;;;;0.30;99.90;;;;;;4964605;28;19948;-66
2023/02/28 06:14:26;;;;;;;;;;;0.40;99.90;;;;;;4973416;28;19933;-68
2023/02/28 06:16:53;;;;;;;;;;;0.40;99.90;;;;;;4973199;28;20021;-68
2023/02/28 06:19:19;;;;;;;;;;;0.40;99.90;;;;;;4972187;28;20037;-67
2023/02/28 06:21:49;;;;;;;;;;;0.40;99.90;;;;;;4960464;28;21492;-68
2023/02/28 06:24:16;;;;;;;;;;;0.40;99.90;;;;;;4963506;28;19962;-67
2023/02/28 06:26:42;;;;;;;;;;;0.50;99.90;;;;;;4967877;28;19932;-68
2023/02/28 06:29:09;;;;;;;;;;;0.50;99.90;;;;;;4969813;28;19976;-68
2023/02/28 06:31:38;;;;;;;;;;;0.50;99.90;;;;;;4972252;28;19933;-69
2023/02/28 06:34:05;;;;;;;;;;;0.50;99.90;;;;;;4962890;28;20297;-68
2023/02/28 06:36:32;;;;;;;;;;;0.50;99.90;;;;;;4963859;28;19926;-67
2023/02/28 06:38:58;;;;;;;;;;;0.50;99.90;;;;;;4972250;28;19933;-68
2023/02/28 06:41:28;;;;;;;;;;;0.60;99.90;;;;;;4968357;28;19926;-67
2023/02/28 06:43:54;;;;;;;;;;;0.60;99.90;;;;;;4969264;28;19926;-68
2023/02/28 06:46:21;;;;;;;;;;;0.60;99.90;;;;;;4969008;28;19926;-67
2023/02/28 06:48:49;;;;;;;;;;;0.60;99.90;;;;;;4968035;28;20037;-68
2023/02/28 06:51:16;;;;;;;;;;;0.60;99.90;;;;;;4966743;28;20021;-68
2023/02/28 06:53:43;;;;;;;;;;;0.60;99.90;;;;;;4971475;28;19950;-68
2023/02/28 06:56:11;;;;;;;;;;;0.60;99.90;;;;;;4971938;28;19926;-69
2023/02/28 06:58:39;;;;;;;;;;;0.60;99.90;;;;;;4968926;28;20145;-68
2023/02/28 07:01:06;;;;;;;;;;;0.60;99.90;;;;;;4968715;28;20026;-68
2023/02/28 07:03:33;;;;;;;;;;;0.70;99.90;;;;;;4967593;28;19983;-68
2023/02/28 07:06:01;;;;;;;;;;;0.70;99.90;;;;;;4971618;28;19930;-69
2023/02/28 07:08:27;;;;;;;;;;;0.70;99.90;;;;;;4970198;28;19932;-67
2023/02/28 07:10:54;;;;;;;;;;;0.70;99.90;;;;;;4961080;28;20393;-68
2023/02/28 07:13:21;;;;;;;;;;;0.80;99.90;;;;;;4962847;28;19926;-68
2023/02/28 07:15:54;;;;;;;;;;;0.80;99.90;;;;;;4965591;28;20009;-70
2023/02/28 07:18:20;;;;;;;;;;;0.80;99.90;;;;;;4965396;28;19972;-69
2023/02/28 07:20:47;;;;;;;;;;;0.90;99.90;;;;;;4970600;28;20020;-67
2023/02/28 07:23:15;;;;;;;;;;;1.00;99.90;;;;;;4961935;28;20381;-68
2023/02/28 07:25:41;;;;;;;;;;;1.00;99.90;;;;;;4952493;28;20017;-69
2023/02/28 07:28:10;;;;;;;;;;;1.00;99.90;;;;;;4960887;28;19933;-68
2023/02/28 07:30:36;;;;;;;;;;;1.20;99.90;;;;;;4967581;28;19973;-67
2023/02/28 07:33:03;;;;;;;;;;;1.10;99.90;;;;;;4968769;28;20021;-68
2023/02/28 07:35:30;;;;;;;;;;;1.20;99.90;;;;;;4970480;28;19930;-68
2023/02/28 07:37:58;;;;;;;;;;;1.40;99.90;;;;;;4967545;28;19926;-68
2023/02/28 07:40:26;;;;;;;;;;;1.50;99.90;;;;;;4964341;28;19928;-69
2023/02/28 07:42:53;;;;;;;;;;;1.50;99.90;;;;;;4964967;28;20385;-69
2023/02/28 07:45:20;;;;;;;;;;;1.60;99.90;;;;;;4968296;28;20364;-68
2023/02/28 07:47:47;;;;;;;;;;;1.70;99.90;;;;;;4965058;28;19934;-69
2023/02/28 07:50:15;;;;;;;;;;;1.70;99.90;;;;;;4964933;28;20385;-68
2023/02/28 07:52:44;;;;;;;;;;;1.70;99.90;;;;;;4961971;28;19948;-69
2023/02/28 07:55:10;;;;;;;;;;;1.80;99.90;;;;;;4965360;28;20040;-68
2023/02/28 07:57:38;;;;;;;;;;;1.80;99.90;;;;;;4962555;28;20385;-69
2023/02/28 08:00:06;;;;;;;;;;;1.80;99.90;;;;;;4966910;28;20013;-68
2023/02/28 08:02:33;;;;;;;;;;;1.90;99.90;;;;;;4951824;29;19972;-67
2023/02/28 08:05:00;;;;;;;;;;;1.90;99.90;;;;;;4968605;28;19926;-69
2023/02/28 08:07:27;;;;;;;;;;;2.00;99.90;;;;;;4969686;28;19972;-68
2023/02/28 08:09:53;;;;;;;;;;;2.00;99.90;;;;;;4969522;28;19926;-68
2023/02/28 08:12:20;;;;;;;;;;;2.10;99.90;;;;;;4961294;28;19926;-69
2023/02/28 08:14:48;;;;;;;;;;;2.10;99.90;;;;;;4951438;29;20509;-68
2023/02/28 08:17:15;;;;;;;;;;;2.10;99.90;;;;;;4953493;28;19933;-70
2023/02/28 08:19:42;;;;;;;;;;;2.10;99.90;;;;;;4969472;28;19973;-69
2023/02/28 08:22:08;;;;;;;;;;;2.10;99.20;;;;;;4969706;28;19971;-69
2023/02/28 08:24:35;;;;;;;;;;;2.10;99.00;;;;;;4979742;22;19961;-69
2023/02/28 08:27:02;;;;;;;;;;;2.10;98.40;;;;;;4978284;28;20018;-69
2023/02/28 08:29:30;;;;;;;;;;;2.10;97.80;;;;;;4969009;28;20285;-69
2023/02/28 08:31:58;;;;;;;;;;;2.10;97.30;;;;;;4970153;28;20376;-69
2023/02/28 08:34:25;;;;;;;;;;;2.10;96.60;;;;;;4969856;28;19971;-69
2023/02/28 08:36:52;;;;;;;;;;;2.20;95.90;;;;;;4966985;28;20032;-68
2023/02/28 08:39:19;;;;;;;;;;;2.30;96.90;;;;;;4965722;28;20331;-69
2023/02/28 08:41:46;;;;;;;;;;;2.30;96.10;;;;;;4978179;28;20314;-68
2023/02/28 08:44:13;;;;;;;;;;;2.40;95.80;;;;;;4974084;28;19933;-69
2023/02/28 08:46:39;;;;;;;;;;;2.40;93.00;;;;;;4974257;28;20465;-69
2023/02/28 08:49:09;;;;;;;;;;;2.50;94.50;;;;;;4960262;28;20412;-69
2023/02/28 08:51:36;;;;;;;;;;;2.50;93.00;;;;;;5001976;28;19926;-68
2023/02/28 08:54:02;;;;;;;;;;;2.50;91.00;;;;;;4970826;22;19933;-70
2023/02/28 08:56:29;;;;;;;;;;;2.50;88.90;;;;;;4925579;28;19927;-69
2023/02/28 08:58:57;;;;;;;;;;;2.70;85.90;;;;;;4928649;28;19927;-68
2023/02/28 09:01:24;;;;;;;;;;;2.70;85.90;;;;;;4922685;28;19935;-69
2023/02/28 09:03:51;;;;;;;;;;;2.90;87.30;;;;;;4927667;28;19927;-68
2023/02/28 09:06:21;;;;;;;;;;;2.90;86.90;;;;;;4931437;28;19977;-69
2023/02/28 09:08:47;;;;;;;;;;;3.00;86.70;;;;;;4928197;28;20009;-68
2023/02/28 09:11:14;;;;;;;;;;;3.00;87.40;;;;;;4929858;28;20445;-69
2023/02/28 09:13:41;;;;;;;;;;;2.90;85.70;;;;;;4966966;28;20023;-69
2023/02/28 09:16:08;;;;;;;;;;;3.00;87.60;;;;;;4957278;28;20021;-69
2023/02/28 09:18:37;;;;;;;;;;;3.20;85.00;;;;;;4952606;28;19927;-68
2023/02/28 09:21:04;;;;;;;;;;;3.40;86.10;;;;;;4930052;29;20322;-68
2023/02/28 09:23:32;;;;;;;;;;;3.60;76.20;;;;;;4929791;28;19926;-68
2023/02/28 09:25:59;;;;;;;;;;;4.00;73.40;;;;;;4931893;28;19934;-67
2023/02/28 09:28:26;;;;;;;;;;;4.70;67.80;;;;;;4929136;28;20010;-67
2023/02/28 09:30:54;;;;;;;;;;;4.40;60.00;;;;;;4929573;28;20325;-68
2023/02/28 09:33:21;;;;;;;;;;;5.00;53.80;;;;;;4931574;28;19927;-67
2023/02/28 09:35:48;;;;;;;;;;;5.30;43.20;;;;;;4932866;28;19937;-67
2023/02/28 09:38:15;;;;;;;;;;;4.80;40.20;;;;;;4939047;28;19933;-68
2023/02/28 09:40:47;;;;;;;;;;;5.20;38.80;;;;;;4933279;28;19926;-68
2023/02/28 09:43:15;;;;;;;;;;;5.30;37.50;;;;;;4934976;28;19970;-69
2023/02/28 09:45:43;;;;;;;;;;;4.80;36.90;;;;;;4965905;28;20018;-68
2023/02/28 09:48:15;;;;;;;;;;;4.80;35.00;;;;;;4925942;28;19927;-67
2023/02/28 09:50:44;;;;;;;;;;;4.00;36.10;;;;;;4934255;28;20402;-67
2023/02/28 09:53:14;;;;;;;;;;;3.70;38.50;;;;;;4938600;28;20025;-68
2023/02/28 09:55:43;;;;;;;;;;;3.60;39.40;;;;;;4937589;28;20311;-67
2023/02/28 09:58:16;;;;;;;;;;;3.60;40.20;;;;;;4933555;28;19927;-68
2023/02/28 10:00:43;;;;;;;;;;;3.80;39.80;;;;;;4956497;28;19927;-69
2023/02/28 10:03:19;;;;;;;;;;;3.60;38.40;;;;;;4935487;28;20336;-69
2023/02/28 10:05:51;;;;;;;;;;;3.70;38.40;;;;;;4938170;28;20022;-68
2023/02/28 10:08:19;;;;;;;;;;;3.60;38.70;;;;;;4968054;28;19931;-67
2023/02/28 10:10:47;;;;;;;;;;;3.60;37.50;;;;;;4935746;28;20009;-66
2023/02/28 10:13:18;;;;;;;;;;;3.50;36.30;;;;;;4968098;28;19931;-68
2023/02/28 10:15:46;;;;;;;;;;;3.50;37.10;;;;;;4933419;29;19931;-68
2023/02/28 10:18:14;;;;;;;;;;;3.60;36.90;;;;;;4930084;29;19955;-69
2023/02/28 10:20:43;;;;;;;;;;;3.60;36.00;;;;;;4930717;28;20307;-67
2023/02/28 10:23:12;;;;;;;;;;;3.70;38.60;;;;;;5024813;22;19924;-68
2023/02/28 10:25:39;;;;;;;;;;;3.70;37.40;;;;;;5090581;28;20358;-66
2023/02/28 10:28:10;;;;;;;;;;;3.50;38.80;;;;;;5071335;28;20456;-68
2023/02/28 10:30:39;;;;;;;;;;;3.40;38.30;;;;;;5069073;28;19962;-68
2023/02/28 10:33:06;;;;;;;;;;;3.40;39.10;;;;;;5071186;28;19924;-67
2023/02/28 10:35:34;;;;;;;;;;;3.50;39.50;;;;;;5054671;28;19924;-68
2023/02/28 10:38:02;;;;;;;;;;;3.70;38.50;;;;;;5066479;28;19936;-67
2023/02/28 10:40:31;;;;;;;;;;;3.80;37.10;;;;;;5070202;28;20013;-68
2023/02/28 10:42:59;;;;;;;;;;;3.70;35.10;;;;;;5060755;28;19935;-67
2023/02/28 10:45:26;;;;;;;;;;;3.50;34.10;;;;;;5067261;28;19932;-69
2023/02/28 10:47:56;;;;;;;;;;;3.50;34.10;;;;;;5072895;28;19925;-68
2023/02/28 10:50:44;;;;;;;;;;;3.60;33.20;;;;;;5074162;28;20379;-67
2023/02/28 10:53:32;;;;;;;;;;;3.50;33.40;;;;;;5067855;28;20015;-68
2023/02/28 10:56:00;;;;;;;;;;;3.60;33.20;;;;;;5071096;28;19928;-68
2023/02/28 10:58:28;;;;;;;;;;;3.40;32.10;;;;;;5063825;28;19931;-68
2023/02/28 11:00:55;;;;;;;;;;;3.80;32.50;;;;;;5068051;28;19925;-60
2023/02/28 11:03:26;;;;;;;;;;;3.60;29.70;;;;;;5067006;28;20356;-63
2023/02/28 11:05:52;;;;;;;;;;;3.70;29.40;;;;;;5070118;28;19924;-63
2023/02/28 11:08:19;;;;;;;;;;;3.80;29.90;;;;;;5067842;28;19932;-62
2023/02/28 11:10:47;;;;;;;;;;;3.80;29.10;;;;;;5062367;28;20004;-61
2023/02/28 11:13:17;;;;;;;;;;;3.80;27.20;;;;;;5065854;28;20049;-62
2023/02/28 11:15:51;;;;;;;;;;;3.90;27.60;;;;;;5068184;28;19928;-60
2023/02/28 11:18:23;;;;;;;;;;;3.90;26.60;;;;;;5058870;28;19964;-61
2023/02/28 11:20:53;;;;;;;;;;;4.00;27.50;;;;;;5063100;28;19924;-68
2023/02/28 11:23:21;;;;;;;;;;;3.80;26.60;;;;;;5061500;28;20402;-69
2023/02/28 11:25:48;;;;;;;;;;;4.00;27.30;;;;;;5055269;28;19932;-67
2023/02/28 11:28:25;;;;;;;;;;;4.20;28.30;;;;;;5062149;28;19928;-67
2023/02/28 11:31:01;;;;;;;;;;;4.00;26.30;;;;;;5060821;28;19924;-68
2023/02/28 11:33:29;;;;;;;;;;;3.80;26.80;;;;;;5063337;28;19935;-68
2023/02/28 11:35:59;;;;;;;;;;;4.00;26.30;;;;;;5062163;28;19925;-68
2023/02/28 11:38:26;;;;;;;;;;;3.90;26.80;;;;;;5069454;28;19951;-68
2023/02/28 11:41:02;;;;;;;;;;;4.00;26.90;;;;;;5061801;28;19931;-69
2023/02/28 11:43:35;;;;;;;;;;;4.40;28.20;;;;;;5066426;28;20380;-68
2023/02/28 11:46:07;;;;;;;;;;;4.30;27.90;;;;;;5063084;28;20368;-68
2023/02/28 11:48:38;;;;;;;;;;;4.40;27.30;;;;;;5067925;28;19954;-69
2023/02/28 11:51:13;;;;;;;;;;;4.00;27.50;;;;;;5072323;28;19929;-68
2023/02/28 11:53:48;;;;;;;;;;;4.10;27.60;;;;;;5070393;28;19924;-68
2023/02/28 11:56:18;;;;;;;;;;;4.10;25.70;;;;;;5072348;28;20377;-67
2023/02/28 11:58:50;;;;;;;;;;;4.40;27.20;;;;;;5072109;28;19930;-67
2023/02/28 12:01:24;;;;;;;;;;;4.50;26.20;;;;;;5070280;28;19930;-68
2023/02/28 12:03:57;;;;;;;;;;;4.30;25.90;;;;;;5070269;28;19931;-68
2023/02/28 12:06:28;;;;;;;;;;;4.40;26.50;;;;;;5052387;28;19925;-69
2023/02/28 12:09:01;;;;;;;;;;;4.20;25.60;;;;;;5071064;28;20023;-69
2023/02/28 12:11:32;;;;;;;;;;;4.30;26.00;;;;;;5058632;28;20289;-67
2023/02/28 12:14:06;;;;;;;;;;;4.40;25.30;;;;;;5058910;28;20006;-67
2023/02/28 12:16:47;;;;;;;;;;;4.20;25.10;;;;;;5067845;28;20006;-66
2023/02/28 12:19:18;;;;;;;;;;;4.30;26.00;;;;;;5061250;28;19956;-67
2023/02/28 12:21:52;;;;;;;;;;;4.20;24.60;;;;;;5027943;22;20295;-66
2023/02/28 12:26:45;;;;;;;;;;;4.70;25.30;;;;;;4973014;22;20017;-66
2023/02/28 12:29:15;;;;;;;;;;;4.80;24.70;;;;;;4963631;28;19930;-67
2023/02/28 12:31:44;;;;;;;;;;;4.80;24.60;;;;;;4964102;28;20501;-67
2023/02/28 12:34:13;;;;;;;;;;;5.00;26.50;;;;;;4965174;28;19933;-67
2023/02/28 12:36:41;;;;;;;;;;;5.00;25.20;;;;;;4961605;28;19992;-67
2023/02/28 12:39:12;;;;;;;;;;;5.10;25.70;;;;;;4960101;28;20038;-68
2023/02/28 12:41:42;;;;;;;;;;;5.00;24.90;;;;;;4963746;28;20021;-67
2023/02/28 12:44:11;;;;;;;;;;;5.10;23.80;;;;;;4962051;28;20449;-67
2023/02/28 12:46:39;;;;;;;;;;;4.80;23.20;;;;;;4961532;28;19930;-68
2023/02/28 12:49:09;;;;;;;;;;;4.90;24.70;;;;;;4965177;28;19941;-68
2023/02/28 12:51:36;;;;;;;;;;;4.70;24.00;;;;;;4959840;28;20025;-68
2023/02/28 12:54:08;;;;;;;;;;;4.40;22.70;;;;;;4968615;28;20335;-68
2023/02/28 12:56:39;;;;;;;;;;;4.90;24.20;;;;;;4967006;28;20020;-67
2023/02/28 12:59:11;;;;;;;;;;;5.00;21.60;;;;;;4959765;28;19926;-68
2023/02/28 13:01:53;;;;;;;;;;;4.80;21.60;;;;;;4968528;28;20365;-68
2023/02/28 13:04:43;;;;;;;;;;;4.70;22.30;;;;;;4963126;28;19926;-68
2023/02/28 13:07:17;;;;;;;;;;;4.70;22.30;;;;;;4965157;28;19999;-68
2023/02/28 13:09:52;;;;;;;;;;;4.90;22.20;;;;;;4972653;28;19926;-68
2023/02/28 13:12:22;;;;;;;;;;;5.10;22.90;;;;;;4966388;28;19941;-68
2023/02/28 13:14:49;;;;;;;;;;;4.70;22.00;;;;;;4971753;28;19926;-69
2023/02/28 13:17:20;;;;;;;;;;;4.80;22.10;;;;;;4989955;28;19930;-69
2023/02/28 13:19:47;;;;;;;;;;;4.90;22.10;;;;;;4979403;28;20289;-67
2023/02/28 13:22:18;;;;;;;;;;;4.70;21.90;;;;;;4971695;28;19940;-66
2023/02/28 13:24:46;;;;;;;;;;;4.90;23.50;;;;;;4970579;28;19953;-68
2023/02/28 13:27:24;;;;;;;;;;;5.00;21.80;;;;;;4970892;28;20308;-69
2023/02/28 13:29:52;;;;;;;;;;;5.00;22.40;;;;;;5004538;28;19929;-67
2023/02/28 13:32:42;;;;;;;;;;;5.00;20.50;;;;;;4972284;28;19927;-69
2023/02/28 13:35:15;;;;;;;;;;;4.90;21.00;;;;;;4974500;28;19926;-68
2023/02/28 13:37:45;;;;;;;;;;;5.10;21.90;;;;;;4972611;28;20292;-68
2023/02/28 13:40:29;;;;;;;;;;;5.20;21.70;;;;;;4995306;28;19926;-68
2023/02/28 13:42:57;;;;;;;;;;;5.00;21.00;;;;;;4953503;29;19926;-68
2023/02/28 13:45:26;;;;;;;;;;;5.00;21.60;;;;;;4955040;28;19934;-68
2023/02/28 13:47:53;;;;;;;;;;;5.10;21.30;;;;;;4973175;28;20618;-68
2023/02/28 13:50:22;;;;;;;;;;;5.00;21.70;;;;;;4978975;28;19973;-66
2023/02/28 13:52:52;;;;;;;;;;;5.00;21.50;;;;;;4972520;28;20000;-68
2023/02/28 13:55:25;;;;;;;;;;;5.10;21.50;;;;;;4973191;28;19927;-68
2023/02/28 13:57:59;;;;;;;;;;;5.20;22.00;;;;;;5021279;28;20404;-68
2023/02/28 14:00:35;;;;;;;;;;;5.00;21.40;;;;;;4979429;28;19933;-68
2023/02/28 14:03:08;;;;;;;;;;;5.00;21.50;;;;;;4971895;28;19941;-67
2023/02/28 14:05:35;;;;;;;;;;;5.00;20.70;;;;;;4972691;28;19926;-67
2023/02/28 14:08:06;;;;;;;;;;;5.00;21.10;;;;;;4973075;28;20029;-69
2023/02/28 14:10:33;;;;;;;;;;;5.00;21.20;;;;;;4972648;28;20017;-68
2023/02/28 14:13:01;;;;;;;;;;;4.90;21.90;;;;;;4971330;28;20001;-68
2023/02/28 14:15:35;;;;;;;;;;;4.90;22.10;;;;;;4971197;28;20016;-68
2023/02/28 14:18:03;;;;;;;;;;;4.80;20.90;;;;;;4974173;28;19930;-67
2023/02/28 14:20:31;;;;;;;;;;;4.90;21.80;;;;;;4977565;28;19995;-69
2023/02/28 14:23:03;;;;;;;;;;;4.90;20.90;;;;;;4972583;28;20041;-69
2023/02/28 14:25:34;;;;;;;;;;;4.90;20.90;;;;;;4972669;28;19926;-68
2023/02/28 14:28:07;;;;;;;;;;;5.00;22.20;;;;;;4978528;28;19930;-69
2023/02/28 14:30:52;;;;;;;;;;;5.00;21.20;;;;;;4970589;28;20010;-68
2023/02/28 14:33:37;;;;;;;;;;;5.00;22.60;;;;;;4972270;28;20021;-69
2023/02/28 14:36:10;;;;;;;;;;;5.00;22.30;;;;;;4974837;28;19927;-68
2023/02/28 14:38:41;;;;;;;;;;;4.90;22.20;;;;;;4978133;28;20452;-69